Terminal Aerodrome Forecast
Issued by NWS

Home | Current Version | Previous Version | Text Only | Print | Product List | Glossary On
Versions: 1 2 3 4 5 6 7 8 9 10 11 12 13 14 15 16
000
FTUS45 KVEF 310535
TAFHND
TAF
KHND 310535Z 3106/0106 19018G21KT P6SM SCT100 BKN110
     FM310700 18011KT P6SM SCT150 BKN200
     FM311600 VRB05KT P6SM FEW100 SCT150 BKN200
     FM311900 16012KT P6SM SCT100 SCT150 BKN200
     FM312100 16012KT P6SM VCTS FEW080CB SCT100 BKN150
      TEMPO 3121/0101 VRB15G25KT 6SM -TSRA SCT080CB BKN100
     FM010300 21010KT P6SM FEW100 BKN150=

USA.gov is the U.S. government's official web portal to all federal, state and local government web resources and services.